Time;durP1;ratioP1;P1;durP2;ratioP2;P2;SDS_P1;SDS_P2;PMS_P1;PMS_P2;Temp;Humidity;BMP_temperature;BMP_pressure;BME280_temperature;BME280_humidity;BME280_pressure;Samples;Min_cycle;Max_cycle;Signal;HPM_P1;HPM_P2
2023/04/25 00:01:53;;;;;;;9.73;4.78;;;7.50;99.90;;;6.19;97.01;99892.09;4988699;28;20099;-77
2023/04/25 00:04:21;;;;;;;11.40;5.03;;;7.50;99.90;;;6.26;97.18;99888.31;5002564;28;20041;-79
2023/04/25 00:06:47;;;;;;;8.55;4.72;;;7.60;99.90;;;6.34;97.91;99886.22;5002568;28;20042;-77
2023/04/25 00:09:16;;;;;;;8.73;4.93;;;7.70;99.90;;;6.45;97.65;99887.53;5008939;28;20520;-77
2023/04/25 00:11:46;;;;;;;7.55;4.55;;;7.80;99.90;;;6.54;97.96;99890.63;4995397;28;21505;-78
2023/04/25 00:14:16;;;;;;;11.48;5.13;;;7.90;99.90;;;6.68;98.33;99895.25;4964353;28;21072;-77
2023/04/25 00:16:53;;;;;;;8.35;4.47;;;8.00;99.90;;;6.73;98.08;99890.63;4945855;28;20041;-77
2023/04/25 00:19:38;;;;;;;;;;;;;;;;;;;;;
2023/04/25 00:22:07;;;;;;;10.77;4.57;;;8.10;99.90;;;6.87;97.37;99889.19;4949193;28;20049;-77
2023/04/25 00:24:33;;;;;;;9.75;4.43;;;8.20;99.90;;;6.90;97.70;99884.66;4990494;28;20045;-77
2023/04/25 00:26:59;;;;;;;9.77;4.68;;;8.20;99.90;;;6.96;97.15;99883.56;4993856;28;20538;-77
2023/04/25 00:29:25;;;;;;;5.63;4.20;;;8.30;99.90;;;6.99;97.36;99883.41;5000075;28;20037;-77
2023/04/25 00:31:51;;;;;;;12.15;4.72;;;8.30;99.90;;;7.05;96.93;99883.13;5004623;28;20140;-78
2023/04/25 00:34:25;;;;;;;11.02;4.50;;;8.30;99.90;;;7.12;96.63;99894.16;4986396;28;20532;-77
2023/04/25 00:36:51;;;;;;;9.50;4.43;;;8.40;99.90;;;7.17;96.57;99892.19;4976792;28;20045;-77
2023/04/25 00:39:17;;;;;;;8.68;4.00;;;8.50;99.90;;;7.25;95.93;99887.44;5022655;28;20120;-77
2023/04/25 00:41:44;;;;;;;6.68;3.88;;;8.50;99.90;;;7.30;96.28;99893.34;5013238;28;20029;-77
2023/04/25 00:44:12;;;;;;;7.22;4.50;;;8.60;99.90;;;7.35;96.22;99890.50;5000638;28;20121;-77
2023/04/25 00:46:39;;;;;;;10.43;3.85;;;8.60;99.90;;;7.41;95.70;99892.84;5008535;28;20029;-77
2023/04/25 00:49:06;;;;;;;7.10;4.00;;;8.70;99.90;;;7.46;95.64;99893.47;5007658;28;20042;-78
2023/04/25 00:51:33;;;;;;;7.10;4.15;;;8.70;99.90;;;7.49;95.44;99897.69;5025341;28;20053;-78
2023/04/25 00:54:00;;;;;;;11.27;4.10;;;8.80;99.90;;;7.55;94.89;99894.78;4954024;28;20034;-76
2023/04/25 00:56:28;;;;;;;11.60;4.47;;;8.80;99.90;;;7.58;94.60;99905.13;4998978;28;20142;-78
2023/04/25 00:58:56;;;;;;;9.88;3.67;;;8.80;99.90;;;7.60;94.90;99898.91;5006883;28;20041;-77
2023/04/25 01:01:22;;;;;;;13.13;4.30;;;8.90;99.90;;;7.66;94.60;99891.66;5016106;28;20026;-78
2023/04/25 01:03:49;;;;;;;7.63;3.35;;;8.90;99.90;;;7.69;94.31;99899.38;5035161;28;20528;-78
2023/04/25 01:06:16;;;;;;;18.50;4.22;;;8.90;99.90;;;7.69;94.29;99889.75;5037008;28;20044;-78
2023/04/25 01:08:45;;;;;;;8.27;3.88;;;9.00;99.90;;;7.75;93.57;99896.44;4990575;28;20377;-78
2023/04/25 01:11:11;;;;;;;7.95;3.60;;;9.00;99.90;;;7.77;93.64;99897.22;5027559;28;20034;-77
2023/04/25 01:13:36;;;;;;;10.60;3.30;;;9.00;99.90;;;7.76;93.10;99901.63;5013887;28;20037;-77
2023/04/25 01:16:03;;;;;;;6.53;3.00;;;9.10;99.90;;;7.76;93.32;99901.63;5015598;28;20557;-77
2023/04/25 01:18:29;;;;;;;6.82;3.47;;;9.10;99.90;;;7.77;93.39;99900.69;4988368;28;20034;-78
2023/04/25 01:20:55;;;;;;;11.77;3.17;;;9.10;99.90;;;7.81;93.35;99904.03;5014428;28;20452;-78
2023/04/25 01:23:23;;;;;;;9.32;3.35;;;9.10;99.90;;;7.84;93.13;99893.41;5006424;28;20053;-78
2023/04/25 01:25:50;;;;;;;7.65;3.40;;;9.10;99.90;;;7.86;93.19;99907.28;5000563;28;20033;-77
2023/04/25 01:28:17;;;;;;;7.90;3.42;;;9.10;99.90;;;7.86;93.19;99904.66;5010773;28;20117;-77
2023/04/25 01:30:43;;;;;;;9.88;3.40;;;9.20;99.90;;;7.89;93.27;99899.25;5015564;28;20039;-78
2023/04/25 01:33:09;;;;;;;11.88;3.70;;;9.10;99.90;;;7.89;93.53;99904.50;5019771;28;20092;-78
2023/04/25 01:35:35;;;;;;;11.40;3.95;;;9.20;99.90;;;7.90;93.32;99908.81;5027299;28;20489;-78
2023/04/25 01:38:01;;;;;;;8.55;4.05;;;9.20;99.90;;;7.92;93.51;99909.59;4978691;28;20034;-78
2023/04/25 01:40:28;;;;;;;14.05;3.92;;;9.20;99.90;;;7.91;94.11;99905.28;4984789;28;20106;-78
2023/04/25 01:42:54;;;;;;;15.63;4.93;;;9.20;99.90;;;7.89;94.56;99903.66;5011522;28;20092;-78
2023/04/25 01:45:21;;;;;;;13.40;4.43;;;9.10;99.90;;;7.87;95.07;99910.75;4992363;28;20073;-77
2023/04/25 01:47:49;;;;;;;14.30;4.85;;;9.10;99.90;;;7.86;95.40;99909.91;5009220;28;20021;-77
2023/04/25 01:50:17;;;;;;;12.48;5.13;;;9.10;99.90;;;7.83;95.54;99907.41;5004051;28;20034;-77
2023/04/25 01:52:45;;;;;;;11.50;4.93;;;9.10;99.90;;;7.83;96.00;99917.91;4995413;28;20204;-77
2023/04/25 01:55:11;;;;;;;11.85;5.43;;;9.10;99.90;;;7.82;96.29;99910.97;5006448;28;20053;-78
2023/04/25 01:57:37;;;;;;;8.50;5.25;;;9.10;99.90;;;7.82;96.82;99913.59;5018556;28;20052;-78
2023/04/25 02:00:09;;;;;;;10.93;5.57;;;9.10;99.90;;;7.81;96.79;99912.72;5015544;28;20093;-78
2023/04/25 02:02:38;;;;;;;13.05;5.55;;;9.00;99.90;;;7.77;97.43;99910.34;4998165;28;20524;-79
2023/04/25 02:05:04;;;;;;;17.35;5.75;;;9.00;99.90;;;7.75;97.73;99920.03;4964353;28;20234;-78
2023/04/25 02:07:30;;;;;;;18.77;6.30;;;9.00;99.90;;;7.76;98.11;99911.28;4956391;28;20052;-79
2023/04/25 02:09:56;;;;;;;15.25;6.35;;;9.00;99.90;;;7.75;98.44;99914.78;4968924;28;20117;-79
2023/04/25 02:13:01;;;;;;;;;;;;;;;;;;;;;
2023/04/25 02:15:27;;;;;;;15.40;5.95;;;9.00;99.90;;;7.71;98.86;99921.09;4948281;28;21456;-79
2023/04/25 02:17:53;;;;;;;13.63;6.47;;;8.90;99.90;;;7.73;98.99;99928.00;4954332;28;20034;-80
2023/04/25 02:20:22;;;;;;;15.75;7.13;;;9.00;99.90;;;7.73;98.85;99924.50;4958274;28;20038;-80
2023/04/25 02:22:57;;;;;;;15.45;6.57;;;9.00;99.90;;;7.71;99.36;99923.72;4954625;28;20037;-79
2023/04/25 02:25:26;;;;;;;11.23;6.40;;;8.90;99.90;;;7.72;99.13;99921.03;4950068;28;20113;-79
2023/04/25 02:27:58;;;;;;;15.02;6.50;;;9.00;99.90;;;7.71;99.20;99921.09;4945149;28;20548;-79
2023/04/25 02:30:27;;;;;;;14.57;6.90;;;8.90;99.90;;;7.70;99.55;99922.03;4923774;28;20463;-80
2023/04/25 02:32:55;;;;;;;16.48;7.45;;;8.90;99.90;;;7.72;99.57;99920.19;4898179;28;20043;-81
2023/04/25 02:35:26;;;;;;;17.50;7.10;;;8.90;99.90;;;7.71;99.55;99921.09;4996729;28;20312;-80
2023/04/25 02:37:54;;;;;;;15.63;7.25;;;8.90;99.90;;;7.73;99.99;99932.38;4999592;28;20035;-80
2023/04/25 02:40:20;;;;;;;14.77;7.20;;;8.90;99.90;;;7.73;99.95;99916.63;4925057;28;20176;-80
2023/04/25 02:42:46;;;;;;;18.58;7.57;;;9.00;99.90;;;7.73;99.42;99917.50;4957105;28;20048;-80
2023/04/25 02:45:57;;;;;;;17.45;7.50;;;;;;;7.74;99.76;99927.06;4913285;28;20622;-79
2023/04/25 02:48:46;;;;;;;15.43;7.05;;;8.90;99.90;;;7.70;99.62;99927.28;4965878;28;20108;-81
2023/04/25 02:51:16;;;;;;;14.02;6.47;;;8.90;99.90;;;7.74;99.95;99928.84;4947323;28;20160;-80
2023/04/25 02:53:54;;;;;;;16.58;6.05;;;8.90;99.90;;;7.74;99.94;99923.59;4969006;28;20034;-80
2023/04/25 02:56:20;;;;;;;16.80;6.55;;;8.90;99.90;;;7.72;99.82;99926.28;4913277;28;20049;-81
2023/04/25 02:58:46;;;;;;;11.50;6.10;;;8.90;99.90;;;7.72;99.61;99928.91;4949284;28;20441;-80
2023/04/25 03:01:37;;;;;;;16.73;6.40;;;9.00;99.90;;;7.70;99.17;99924.66;4899338;28;20039;-80
2023/04/25 03:04:04;;;;;;;16.50;6.53;;;8.90;99.90;;;7.71;99.32;99915.88;4953380;28;20478;-81
2023/04/25 03:06:37;;;;;;;22.90;7.07;;;8.90;99.90;;;7.70;99.42;99919.41;4951143;28;20301;-80
2023/04/25 03:09:03;;;;;;;12.98;6.13;;;8.90;99.90;;;7.69;99.35;99917.72;4964470;28;20021;-80
2023/04/25 03:11:29;;;;;;;13.70;6.00;;;8.90;99.90;;;7.65;98.97;99914.41;4969503;28;20996;-80
2023/04/25 03:13:55;;;;;;;13.00;6.80;;;8.90;99.90;;;7.66;98.77;99920.47;4935701;28;20034;-80
2023/04/25 03:16:22;;;;;;;11.73;6.60;;;8.80;99.90;;;7.63;98.70;99918.03;4969103;28;20053;-80
2023/04/25 03:18:50;;;;;;;16.23;7.10;;;8.80;99.90;;;7.60;99.25;99916.38;4931003;28;20072;-80
2023/04/25 03:21:18;;;;;;;19.02;6.88;;;8.80;99.90;;;7.60;98.90;99919.00;4989747;28;20034;-80
2023/04/25 03:23:45;;;;;;;13.70;6.60;;;8.80;99.90;;;7.59;99.45;99915.53;4997727;28;20035;-81
2023/04/25 03:26:11;;;;;;;18.58;6.75;;;8.80;99.90;;;7.59;99.41;99918.16;4971551;28;20142;-79
2023/04/25 03:28:36;;;;;;;16.05;7.60;;;8.80;99.90;;;7.59;99.47;99912.91;4934035;28;20129;-80
2023/04/25 03:31:12;;;;;;;;;;;;;;;;;;;;;
2023/04/25 03:33:38;;;;;;;13.15;7.60;;;8.80;99.90;;;7.59;99.98;99918.16;4964668;28;20320;-78
2023/04/25 03:36:05;;;;;;;12.88;7.78;;;8.80;99.90;;;7.61;99.86;99923.31;4967083;28;20121;-80
2023/04/25 03:38:38;;;;;;;17.02;8.63;;;8.80;99.90;;;7.61;100.00;99920.72;4969173;28;20860;-80
2023/04/25 03:41:04;;;;;;;17.38;8.57;;;8.80;99.90;;;7.60;100.00;99922.47;4930980;28;20073;-80
2023/04/25 03:43:33;;;;;;;15.43;9.55;;;8.90;99.90;;;7.63;99.82;99924.09;4956732;28;20597;-80
2023/04/25 03:46:07;;;;;;;23.08;10.27;;;8.90;99.90;;;7.66;100.00;99925.72;4909716;28;20510;-79
2023/04/25 03:48:33;;;;;;;22.63;9.35;;;8.80;99.90;;;7.70;100.00;99922.03;4862028;28;20039;-79
2023/04/25 03:51:09;;;;;;;;;;;;;;;;;;;;;
2023/04/25 03:53:37;;;;;;;18.92;9.60;;;8.80;99.90;;;7.72;99.96;99936.75;4901945;28;20038;-80
2023/04/25 03:56:03;;;;;;;19.83;10.05;;;;;;;7.72;100.00;99939.38;4911373;28;20537;-80
2023/04/25 03:58:37;;;;;;;16.17;9.60;;;8.90;99.90;;;7.72;100.00;99939.38;4940359;28;20065;-79
2023/04/25 04:01:07;;;;;;;15.52;9.45;;;8.90;99.90;;;7.72;100.00;99939.38;4941798;28;20047;-79
2023/04/25 04:03:44;;;;;;;17.13;9.32;;;8.90;99.90;;;7.73;100.00;99943.72;4945746;28;20065;-80
2023/04/25 04:06:10;;;;;;;19.33;9.25;;;8.90;99.90;;;7.75;100.00;99941.00;4962582;28;20029;-79
2023/04/25 04:08:36;;;;;;;21.20;9.05;;;;;;;7.74;99.83;99944.56;4916392;28;20057;-79
2023/04/25 04:11:26;;;;;;;18.95;8.50;;;;;;;7.74;99.58;99944.56;4941949;28;20077;-79
2023/04/25 04:13:52;;;;;;;15.43;7.90;;;8.90;99.90;;;7.74;100.00;99950.66;4917969;28;20095;-80
2023/04/25 04:16:29;;;;;;;;;;;;;;;;;;;;;
2023/04/25 04:18:55;;;;;;;22.38;8.15;;;8.90;99.90;;;7.81;98.63;99948.59;4955575;28;20655;-79
2023/04/25 04:21:30;;;;;;;;;;;;;;;;;;;;;
2023/04/25 04:24:07;;;;;;;19.60;7.93;;;;;;;7.92;98.09;99954.16;4934721;28;20032;-80
2023/04/25 04:26:45;;;;;;;18.35;7.63;;;9.00;99.90;;;7.95;97.71;99955.81;4986348;28;20033;-80
2023/04/25 04:29:20;;;;;;;17.08;7.80;;;9.00;99.90;;;7.98;97.48;99959.09;4942230;28;20045;-78
2023/04/25 04:31:49;;;;;;;18.58;6.53;;;9.10;99.90;;;8.04;97.02;99967.63;4947125;28;20047;-79
2023/04/25 04:34:16;;;;;;;20.23;6.90;;;9.20;99.90;;;8.22;96.49;99969.34;4961661;28;20030;-79
2023/04/25 04:36:47;;;;;;;19.00;6.68;;;9.30;99.90;;;8.44;95.69;99970.94;4985003;28;20034;-80
2023/04/25 04:39:14;;;;;;;12.05;6.57;;;9.50;99.90;;;8.56;95.04;99975.56;4998517;28;20600;-80
2023/04/25 04:41:40;;;;;;;13.07;6.53;;;9.50;99.90;;;8.52;94.46;99979.28;4974145;28;20045;-79
2023/04/25 04:44:15;;;;;;;24.88;7.32;;;9.50;99.90;;;8.44;94.52;99984.88;4937945;28;20109;-79
2023/04/25 04:46:44;;;;;;;12.50;6.63;;;9.50;99.90;;;8.33;94.40;99985.38;4951998;28;20026;-79
2023/04/25 04:49:11;;;;;;;16.55;6.25;;;9.40;99.90;;;8.27;94.42;99992.72;4945737;28;20030;-80
2023/04/25 04:51:45;;;;;;;16.33;6.93;;;9.40;99.90;;;8.25;94.42;99987.56;4925135;28;20037;-80
2023/04/25 04:54:38;;;;;;;;;;;;;;;;;;;;;
2023/04/25 04:57:04;;;;;;;14.98;6.45;;;9.30;99.90;;;8.18;95.47;99984.34;4961498;28;20349;-79
2023/04/25 04:59:30;;;;;;;17.30;6.30;;;9.30;99.90;;;8.19;95.12;99986.06;4959016;28;20100;-80
2023/04/25 05:01:56;;;;;;;20.30;6.82;;;9.30;99.90;;;8.19;95.45;99982.59;4976621;28;20125;-80
2023/04/25 05:04:51;;;;;;;15.65;6.47;;;;;;;8.16;95.60;99981.00;4938999;28;20112;-79
2023/04/25 05:07:19;;;;;;;19.67;6.18;;;9.30;99.90;;;8.18;95.22;99986.13;4974566;28;20116;-80
2023/04/25 05:09:54;;;;;;;17.38;6.30;;;9.30;99.90;;;8.18;94.84;99983.50;4970582;28;20041;-80
2023/04/25 05:12:20;;;;;;;14.02;5.35;;;9.30;99.90;;;8.19;95.14;99987.84;4988768;28;20033;-80
2023/04/25 05:14:45;;;;;;;17.95;5.57;;;9.40;99.90;;;8.17;94.45;99992.31;4938180;28;20042;-79
2023/04/25 05:17:18;;;;;;;19.40;6.30;;;9.30;99.90;;;8.16;93.92;99994.09;4966159;28;20033;-79
2023/04/25 05:19:44;;;;;;;23.35;6.00;;;9.30;99.90;;;8.13;94.11;99994.22;4917621;28;20567;-79
2023/04/25 05:22:10;;;;;;;17.58;5.07;;;9.30;99.90;;;8.14;93.80;99998.56;4959998;28;20043;-80
2023/04/25 05:24:36;;;;;;;23.42;4.85;;;9.30;99.90;;;8.08;93.24;99996.22;4959561;28;20116;-79
2023/04/25 05:27:03;;;;;;;18.17;4.85;;;9.20;99.90;;;8.06;91.84;99999.84;4954982;28;20117;-80
2023/04/25 05:29:35;;;;;;;19.05;4.57;;;9.30;99.90;;;8.06;91.39;99999.84;4931177;28;20108;-81
2023/04/25 05:32:05;;;;;;;17.40;4.10;;;;;;;8.04;91.30;99999.09;4936314;28;20040;-81
2023/04/25 05:34:30;;;;;;;15.23;3.88;;;9.20;99.90;;;7.98;90.51;100008.91;4957233;28;20098;-79
2023/04/25 05:37:01;;;;;;;20.75;4.68;;;9.20;99.90;;;7.95;90.76;100005.63;4995656;28;21514;-80
2023/04/25 05:39:27;;;;;;;25.88;4.95;;;9.10;99.90;;;7.94;90.04;100007.34;4935455;28;20034;-80
2023/04/25 05:41:53;;;;;;;19.58;4.47;;;9.10;99.90;;;7.96;90.23;100012.53;4935453;28;20039;-79
2023/04/25 05:44:18;;;;;;;19.30;4.03;;;9.20;99.90;;;8.01;90.33;100013.16;4984239;28;20032;-79
2023/04/25 05:46:44;;;;;;;16.48;3.67;;;9.20;99.90;;;7.97;89.73;100015.09;4953497;28;20478;-79
2023/04/25 05:49:10;;;;;;;27.60;4.35;;;9.20;99.90;;;8.02;89.52;100023.59;4948191;28;20065;-79
2023/04/25 05:51:43;;;;;;;24.98;4.63;;;9.20;99.90;;;8.05;87.91;100019.13;4944476;28;20041;-80
2023/04/25 05:54:19;;;;;;;;;;;;;;;;;;;;;
2023/04/25 05:56:45;;;;;;;;;;;9.30;99.90;;;8.33;87.09;100024.72;4930407;28;20044;-79
2023/04/25 05:59:11;;;;;;;19.50;3.93;;;9.50;99.90;;;8.70;86.16;100037.84;4951261;28;20008;-80
2023/04/25 06:01:37;;;;;;;23.35;3.83;;;9.70;99.90;;;9.02;85.28;100044.13;4950481;28;20114;-79
2023/04/25 06:04:05;;;;;;;23.90;4.32;;;9.90;99.90;;;9.15;83.74;100046.97;4924400;28;20034;-79
2023/04/25 06:06:31;;;;;;;25.98;4.50;;;10.10;99.90;;;9.18;82.79;100047.66;4930452;28;20086;-79
2023/04/25 06:09:02;;;;;;;26.33;4.03;;;10.10;99.90;;;9.33;81.82;100053.03;4961818;28;20687;-79
2023/04/25 06:11:28;;;;;;;27.45;4.35;;;10.30;99.90;;;9.52;79.88;100056.38;4965742;28;20052;-80
2023/04/25 06:13:54;;;;;;;22.88;4.32;;;10.40;99.90;;;9.63;77.01;100061.06;4978264;28;20034;-79
2023/04/25 06:16:20;;;;;;;23.08;3.75;;;10.50;99.90;;;10.21;75.26;100052.63;4971310;28;20429;-78
2023/04/25 06:18:46;;;;;;;24.58;3.75;;;10.90;99.90;;;10.63;73.04;100063.50;4986449;28;20498;-80
2023/04/25 06:21:17;;;;;;;29.23;4.72;;;11.20;99.90;;;11.09;71.31;100068.72;4990318;28;20037;-79
2023/04/25 06:23:43;;;;;;;21.88;3.80;;;11.50;99.90;;;11.36;69.82;100073.28;4945970;28;20400;-79
2023/04/25 06:26:09;;;;;;;20.55;3.50;;;11.60;99.90;;;11.46;66.76;100066.50;4954829;28;20044;-79
2023/04/25 06:28:34;;;;;;;22.65;3.83;;;11.80;99.90;;;11.61;66.80;100060.31;4943722;28;20026;-80
2023/04/25 06:31:00;;;;;;;23.23;4.45;;;12.00;99.90;;;11.69;66.79;100067.75;4954684;28;20099;-79
2023/04/25 06:33:26;;;;;;;17.88;3.53;;;12.00;99.90;;;11.37;67.01;100072.34;4950522;28;20092;-79
2023/04/25 06:35:57;;;;;;;22.85;3.92;;;11.90;99.90;;;10.93;67.67;100062.66;4950365;28;20042;-79
2023/04/25 06:38:25;;;;;;;21.65;4.40;;;11.60;99.90;;;10.52;68.19;100063.25;4932572;28;20064;-80
2023/04/25 06:40:51;;;;;;;26.33;4.38;;;11.50;99.90;;;10.27;70.11;100065.47;4930131;28;20045;-79
2023/04/25 06:43:17;;;;;;;22.95;3.92;;;11.40;99.90;;;10.63;70.47;100074.03;4988056;28;20121;-78
2023/04/25 06:45:42;;;;;;;21.45;4.18;;;11.60;99.90;;;12.02;67.83;100091.22;5009706;28;20116;-79
2023/04/25 06:48:17;;;;;;;22.63;4.22;;;12.60;99.90;;;15.57;59.62;100124.75;4949555;28;20033;-80
2023/04/25 06:50:43;;;;;;;27.40;4.32;;;14.50;99.90;;;18.10;53.11;100128.91;4948835;28;20058;-79
2023/04/25 06:53:11;;;;;;;21.48;4.05;;;16.70;99.90;;;20.38;49.21;100151.53;4962823;28;20033;-80
2023/04/25 06:55:44;;;;;;;22.88;4.35;;;18.80;99.90;;;22.43;45.23;100171.16;4966494;28;20118;-79
2023/04/25 06:58:10;;;;;;;17.75;3.45;;;20.50;96.50;;;21.86;41.79;100148.41;5008191;28;20026;-78
2023/04/25 07:00:36;;;;;;;15.85;3.25;;;20.40;94.20;;;19.62;43.77;100135.66;4944348;28;20079;-79
2023/04/25 07:03:02;;;;;;;22.08;4.32;;;19.60;95.30;;;17.82;46.96;100120.66;4936443;28;20038;-78
2023/04/25 07:05:33;;;;;;;16.92;3.00;;;18.30;95.50;;;15.88;49.13;100102.97;4941818;28;20087;-79
2023/04/25 07:08:00;;;;;;;20.85;3.38;;;16.70;95.50;;;14.20;51.06;100088.97;5017294;28;20049;-79
2023/04/25 07:10:26;;;;;;;29.15;4.75;;;15.50;98.30;;;13.24;54.31;100091.22;4989514;28;20067;-79
2023/04/25 07:12:51;;;;;;;25.98;3.92;;;14.50;99.90;;;12.64;56.40;100092.56;4956300;28;20074;-79
2023/04/25 07:15:17;;;;;;;24.25;3.85;;;13.70;99.90;;;12.08;55.76;100090.81;4949313;28;20177;-79
2023/04/25 07:17:43;;;;;;;22.20;4.07;;;13.70;99.90;;;14.01;54.75;100130.94;4946789;28;20049;-79
2023/04/25 07:20:17;;;;;;;19.75;3.70;;;14.90;99.90;;;17.09;49.96;100174.78;5008943;28;20097;-78
2023/04/25 07:22:43;;;;;;;20.13;3.55;;;16.70;99.90;;;19.03;46.06;100199.75;4980924;28;20045;-79
2023/04/25 07:25:09;;;;;;;31.98;4.70;;;18.20;98.50;;;18.99;44.75;100198.34;4997264;28;20090;-79
2023/04/25 07:27:42;;;;;;;20.60;3.63;;;18.20;95.00;;;17.01;46.16;100184.22;4952441;28;20037;-80
2023/04/25 07:30:09;;;;;;;19.58;3.40;;;18.20;97.50;;;15.34;48.29;100157.50;4966711;28;20082;-79
2023/04/25 07:32:35;;;;;;;23.65;3.90;;;16.30;97.20;;;14.36;51.19;100146.97;4990974;28;20033;-78
2023/04/25 07:35:01;;;;;;;26.65;4.05;;;15.50;98.90;;;13.66;53.00;100148.31;5004526;28;20409;-79
2023/04/25 07:37:27;;;;;;;23.88;4.47;;;14.70;99.90;;;13.05;54.98;100134.75;4960645;28;20132;-79
2023/04/25 07:39:53;;;;;;;24.85;3.80;;;14.10;99.90;;;12.34;55.83;100138.50;4954928;28;20159;-78
2023/04/25 07:42:21;;;;;;;29.25;4.45;;;13.60;99.90;;;12.45;56.87;100145.72;4991393;28;20257;-79
2023/04/25 07:44:47;;;;;;;25.05;4.30;;;13.90;99.90;;;14.19;54.97;100173.78;4956261;28;20046;-79
2023/04/25 07:47:13;;;;;;;29.25;4.43;;;14.50;99.90;;;14.42;52.78;100180.13;4966695;28;20096;-79
2023/04/25 07:49:39;;;;;;;23.33;4.10;;;14.90;99.90;;;14.41;52.69;100189.03;4971898;28;20116;-78
2023/04/25 07:52:06;;;;;;;18.75;3.90;;;15.10;99.90;;;14.70;52.80;100184.31;4977004;28;20521;-78
2023/04/25 07:54:37;;;;;;;25.10;4.43;;;15.10;99.90;;;14.29;52.40;100185.44;4963841;28;20043;-79
2023/04/25 07:57:06;;;;;;;25.23;4.30;;;14.80;99.90;;;13.50;53.21;100176.78;4930019;28;20039;-78
2023/04/25 07:59:32;;;;;;;25.55;4.40;;;14.50;99.90;;;13.12;54.27;100172.22;4956576;28;20041;-79
2023/04/25 08:01:58;;;;;;;27.98;4.35;;;14.00;99.90;;;12.78;54.49;100178.84;4967662;28;20045;-79
2023/04/25 08:04:27;;;;;;;24.00;3.90;;;13.70;99.90;;;12.60;55.39;100176.44;4964000;28;20048;-80
2023/04/25 08:06:55;;;;;;;28.05;5.72;;;13.50;99.90;;;12.49;55.47;100169.19;4929662;28;20052;-78
2023/04/25 08:09:21;;;;;;;23.50;4.20;;;13.60;99.90;;;13.13;54.59;100190.63;4997515;28;20025;-79
2023/04/25 08:11:48;;;;;;;22.95;4.05;;;13.80;99.90;;;13.69;53.49;100202.81;4962970;28;20511;-78
2023/04/25 08:14:14;;;;;;;24.75;5.50;;;14.20;99.90;;;13.90;52.84;100214.56;4960559;28;20040;-79
2023/04/25 08:16:47;;;;;;;23.95;4.10;;;14.40;99.90;;;13.89;52.55;100218.19;4949016;28;20465;-78
2023/04/25 08:19:13;;;;;;;25.52;4.43;;;14.30;99.90;;;13.61;52.66;100213.09;4998079;28;20054;-78
2023/04/25 08:21:39;;;;;;;22.88;3.92;;;14.20;99.90;;;13.50;53.11;100212.00;4957796;28;20041;-78
2023/04/25 08:24:05;;;;;;;26.25;4.63;;;14.30;99.90;;;13.84;52.78;100227.38;4982335;28;20518;-78
2023/04/25 08:26:39;;;;;;;25.13;4.07;;;14.40;99.90;;;13.89;52.33;100233.22;4941079;28;20125;-78
2023/04/25 08:29:06;;;;;;;22.70;4.15;;;14.50;99.90;;;14.05;51.24;100233.00;4986947;28;20037;-78
2023/04/25 08:31:31;;;;;;;26.27;4.65;;;14.50;99.80;;;13.68;51.76;100235.53;4994750;28;20033;-79
2023/04/25 08:33:57;;;;;;;27.83;4.35;;;14.30;99.90;;;13.28;52.51;100238.13;4982422;28;20072;-78
2023/04/25 08:36:23;;;;;;;21.75;4.10;;;14.00;99.90;;;12.77;53.01;100230.00;5004299;28;20061;-78
2023/04/25 08:38:54;;;;;;;20.88;4.53;;;13.60;99.90;;;12.08;53.32;100225.41;4992138;28;20037;-77
2023/04/25 08:41:22;;;;;;;33.67;5.20;;;13.10;99.90;;;11.50;54.26;100229.69;4964879;28;20062;-78
2023/04/25 08:43:49;;;;;;;26.05;4.07;;;12.60;99.90;;;11.14;55.59;100221.28;4970030;28;20114;-78
2023/04/25 08:46:26;;;;;;;21.75;4.10;;;12.30;99.90;;;10.98;56.64;100229.22;4981106;28;20068;-78
2023/04/25 08:49:05;;;;;;;25.55;4.57;;;12.10;99.90;;;10.88;57.17;100219.19;5017327;28;20057;-79
2023/04/25 08:51:32;;;;;;;29.60;4.18;;;11.90;99.90;;;10.92;57.87;100229.53;4997484;28;20044;-77
2023/04/25 08:54:12;;;;;;;16.60;3.63;;;11.90;99.90;;;11.12;56.95;100231.06;5013814;28;20028;-78
2023/04/25 08:56:43;;;;;;;21.73;3.55;;;12.10;99.90;;;11.55;55.01;100245.25;5004345;28;20042;-78
2023/04/25 08:59:11;;;;;;;22.95;3.85;;;12.40;99.90;;;12.05;54.74;100254.63;4966626;28;20030;-79
2023/04/25 09:01:37;;;;;;;27.90;4.05;;;12.70;99.90;;;12.28;54.11;100255.03;5019173;28;20042;-77
2023/04/25 09:04:03;;;;;;;25.25;3.47;;;12.90;99.90;;;12.17;52.77;100262.75;5001817;28;20073;-77
2023/04/25 09:06:31;;;;;;;22.58;3.78;;;12.90;99.90;;;12.06;53.42;100271.31;4999639;28;20029;-77
2023/04/25 09:09:11;;;;;;;19.50;3.42;;;12.80;99.90;;;11.86;53.32;100265.41;4979714;28;20118;-77
2023/04/25 09:11:38;;;;;;;21.05;3.47;;;12.60;99.90;;;11.57;54.28;100269.72;4998529;28;20044;-78
2023/04/25 09:14:22;;;;;;;20.17;3.03;;;12.60;99.90;;;11.68;55.67;100274.38;5005537;28;20034;-77
2023/04/25 09:17:10;;;;;;;16.27;2.90;;;12.50;99.70;;;11.56;54.11;100278.59;5017356;28;20576;-77
2023/04/25 09:19:40;;;;;;;21.33;3.63;;;12.50;99.90;;;11.57;54.00;100285.56;5004652;28;20040;-77
2023/04/25 09:22:07;;;;;;;21.38;3.63;;;12.50;99.90;;;11.60;54.38;100292.47;5007608;28;20037;-78
2023/04/25 09:24:50;;;;;;;23.52;3.75;;;12.40;99.90;;;11.30;54.51;100285.38;4999970;28;20023;-77
2023/04/25 09:27:24;;;;;;;16.38;2.63;;;12.20;99.90;;;11.00;55.63;100290.56;5000514;28;20078;-78
2023/04/25 09:30:01;;;;;;;22.83;3.10;;;11.90;99.90;;;10.52;55.58;100298.41;4982932;28;20029;-78
2023/04/25 09:32:30;;;;;;;20.52;3.70;;;11.70;99.90;;;10.37;56.34;100292.16;4991318;28;20033;-78
2023/04/25 09:34:58;;;;;;;17.73;3.25;;;11.50;99.90;;;10.24;56.46;100291.09;5007397;28;20497;-78
2023/04/25 09:37:29;;;;;;;19.27;3.28;;;11.30;99.90;;;10.03;55.58;100296.50;4975636;28;20736;-77
2023/04/25 09:40:05;;;;;;;10.50;2.08;;;11.00;99.90;;;9.49;56.80;100276.47;5035461;28;20044;-77
2023/04/25 09:42:34;;;;;;;23.70;3.30;;;10.90;99.90;;;9.77;57.43;100287.31;4998324;28;20052;-76
2023/04/25 09:45:09;;;;;;;26.77;3.78;;;10.90;99.90;;;9.96;57.56;100289.88;5014296;28;20034;-77
2023/04/25 09:47:39;;;;;;;18.50;3.17;;;11.00;99.90;;;10.21;56.58;100307.00;5035846;28;20033;-76
2023/04/25 09:50:20;;;;;;;19.73;3.55;;;11.30;99.90;;;10.62;56.32;100318.03;5006438;28;20120;-77
2023/04/25 09:53:02;;;;;;;23.05;3.75;;;11.60;99.90;;;10.86;55.02;100326.41;4996622;28;20033;-79
2023/04/25 09:55:33;;;;;;;17.35;2.63;;;11.80;99.90;;;11.09;55.05;100326.94;5023547;28;20030;-77
2023/04/25 09:58:11;;;;;;;16.15;3.03;;;12.00;99.90;;;11.13;54.07;100335.53;5018104;28;20049;-77
2023/04/25 10:00:44;;;;;;;22.92;3.83;;;12.10;99.90;;;11.33;54.63;100350.22;5030767;28;20037;-77
2023/04/25 10:03:16;;;;;;;26.85;3.55;;;12.20;99.90;;;11.35;54.14;100353.63;5012772;28;20085;-77
2023/04/25 10:05:44;;;;;;;15.05;3.90;;;12.20;99.90;;;11.20;53.58;100348.25;5014218;28;20025;-77
2023/04/25 10:08:18;;;;;;;23.00;3.70;;;12.10;99.90;;;11.06;53.89;100342.91;5034627;28;20129;-77
2023/04/25 10:10:46;;;;;;;18.65;3.35;;;12.00;99.90;;;11.04;54.72;100347.41;5000108;28;20033;-77
2023/04/25 10:13:15;;;;;;;25.23;3.10;;;12.00;99.90;;;11.06;55.65;100354.31;4992096;28;20044;-77
2023/04/25 10:15:48;;;;;;;16.38;2.40;;;12.00;99.90;;;10.90;53.63;100356.06;4994260;28;20033;-78
2023/04/25 10:18:15;;;;;;;23.67;3.63;;;11.90;99.90;;;10.96;53.77;100352.25;5016770;28;20064;-77
2023/04/25 10:20:44;;;;;;;23.42;3.15;;;11.80;99.30;;;10.73;53.15;100364.00;5019981;28;20049;-76
2023/04/25 10:23:16;;;;;;;20.15;4.07;;;11.80;99.90;;;10.89;53.62;100364.91;5007126;28;20041;-77
2023/04/25 10:25:43;;;;;;;16.27;2.85;;;11.90;99.40;;;10.88;53.27;100366.69;5008149;28;20089;-76
2023/04/25 10:28:15;;;;;;;20.02;3.22;;;11.90;98.50;;;11.02;52.10;100378.28;5025522;28;20037;-77
2023/04/25 10:31:05;;;;;;;18.90;3.28;;;12.00;99.90;;;11.20;52.27;100376.41;5014825;28;20394;-77
2023/04/25 10:33:41;;;;;;;24.30;3.60;;;12.00;98.60;;;11.06;51.81;100382.44;5016447;28;20033;-76
2023/04/25 10:36:27;;;;;;;22.92;3.08;;;11.90;98.80;;;10.81;51.09;100375.84;5021360;28;20105;-76
2023/04/25 10:38:57;;;;;;;14.30;2.65;;;11.60;97.30;;;10.25;51.16;100372.56;5005766;28;20534;-76
2023/04/25 10:41:23;;;;;;;16.70;2.67;;;11.60;98.90;;;10.44;52.01;100380.41;5029496;28;20034;-76